createdAt,value
2022-12-03T00:00:10.510Z,1007.12
2022-12-03T00:00:14.893Z,1007.12
2022-12-03T00:00:24.917Z,1007.10
2022-12-03T00:00:34.886Z,1007.15
2022-12-03T00:00:44.882Z,1007.14
2022-12-03T00:00:54.907Z,1007.13
2022-12-03T00:01:05.709Z,1007.14
2022-12-03T00:01:14.898Z,1007.12
2022-12-03T00:01:24.895Z,1007.11
2022-12-03T00:01:34.890Z,1007.13
2022-12-03T00:01:44.901Z,1007.12
2022-12-03T00:01:54.895Z,1007.16
2022-12-03T00:02:04.902Z,1007.16
2022-12-03T00:02:15.848Z,1007.15
2022-12-03T00:02:25.032Z,1007.16
2022-12-03T00:02:35.020Z,1007.12
2022-12-03T00:02:45.159Z,1007.14
2022-12-03T00:02:55.080Z,1007.16
2022-12-03T00:03:05.076Z,1007.11
2022-12-03T00:03:15.114Z,1007.18
2022-12-03T00:03:25.085Z,1007.12
2022-12-03T00:03:34.997Z,1007.11
2022-12-03T00:03:45.062Z,1007.15
2022-12-03T00:03:55.070Z,1007.10
2022-12-03T00:04:05.000Z,1007.14
2022-12-03T00:04:14.898Z,1007.11
2022-12-03T00:04:24.872Z,1007.11
2022-12-03T00:04:34.899Z,1007.15
2022-12-03T00:04:44.872Z,1007.13
2022-12-03T00:04:55.288Z,1007.18
2022-12-03T00:05:05.043Z,1007.10
2022-12-03T00:05:14.892Z,1007.09
2022-12-03T00:05:24.872Z,1007.12
2022-12-03T00:05:34.886Z,1007.10
2022-12-03T00:05:49.103Z,1007.14
2022-12-03T00:05:54.877Z,1007.10
2022-12-03T00:06:04.957Z,1007.11
2022-12-03T00:06:14.865Z,1007.11
2022-12-03T00:06:25.659Z,1007.08
2022-12-03T00:06:35.019Z,1007.08
2022-12-03T00:06:44.877Z,1007.09
2022-12-03T00:06:54.864Z,1007.09
2022-12-03T00:07:04.887Z,1007.14
2022-12-03T00:07:14.881Z,1007.10
2022-12-03T00:07:24.920Z,1007.10
2022-12-03T00:07:34.938Z,1007.09
2022-12-03T00:07:44.900Z,1007.11
2022-12-03T00:07:55.791Z,1007.13
2022-12-03T00:08:04.931Z,1007.11
2022-12-03T00:08:15.869Z,1007.10
2022-12-03T00:08:24.859Z,1007.12
2022-12-03T00:08:34.857Z,1007.13
2022-12-03T00:08:44.863Z,1007.14
2022-12-03T00:08:54.869Z,1007.11
2022-12-03T00:09:04.859Z,1007.09
2022-12-03T00:09:15.714Z,1007.14
2022-12-03T00:09:24.870Z,1007.11
2022-12-03T00:09:34.901Z,1007.08
2022-12-03T00:09:44.856Z,1007.10
2022-12-03T00:09:54.873Z,1007.10
2022-12-03T00:10:04.846Z,1007.10
2022-12-03T00:10:14.869Z,1007.16
2022-12-03T00:10:24.888Z,1007.08
2022-12-03T00:10:34.930Z,1007.08
2022-12-03T00:10:44.852Z,1007.08
2022-12-03T00:10:54.856Z,1007.10
2022-12-03T00:11:04.850Z,1007.09
2022-12-03T00:11:14.849Z,1007.09
2022-12-03T00:11:24.871Z,1007.11
2022-12-03T00:11:34.846Z,1007.12
2022-12-03T00:11:44.857Z,1007.12
2022-12-03T00:11:54.853Z,1007.11
2022-12-03T00:12:04.861Z,1007.08
2022-12-03T00:12:14.846Z,1007.05
2022-12-03T00:12:24.841Z,1007.06
2022-12-03T00:12:34.850Z,1007.08
2022-12-03T00:12:44.864Z,1007.06
2022-12-03T00:12:54.839Z,1007.07
2022-12-03T00:13:05.060Z,1007.07
2022-12-03T00:13:14.868Z,1007.06
2022-12-03T00:13:25.734Z,1007.07
2022-12-03T00:13:34.973Z,1007.07
2022-12-03T00:13:44.871Z,1007.08
2022-12-03T00:13:54.841Z,1007.05
2022-12-03T00:14:04.839Z,1007.04
2022-12-03T00:14:14.847Z,1007.05
2022-12-03T00:14:24.872Z,1007.07
2022-12-03T00:14:36.158Z,1007.03
2022-12-03T00:14:45.161Z,1007.02
2022-12-03T00:14:55.286Z,1007.03
2022-12-03T00:15:04.874Z,1007.07
2022-12-03T00:15:14.856Z,1007.09
2022-12-03T00:15:24.844Z,1007.12
2022-12-03T00:15:34.882Z,1007.09
2022-12-03T00:15:44.936Z,1007.16
2022-12-03T00:15:54.891Z,1007.12
2022-12-03T00:16:04.902Z,1007.03
2022-12-03T00:16:15.746Z,1007.07
2022-12-03T00:16:24.855Z,1007.09
2022-12-03T00:16:34.852Z,1007.05
2022-12-03T00:16:44.836Z,1007.06
2022-12-03T00:16:54.827Z,1007.04
2022-12-03T00:17:04.958Z,1007.05
2022-12-03T00:17:14.939Z,1007.07
2022-12-03T00:17:24.849Z,1007.03
2022-12-03T00:17:34.851Z,1007.04
2022-12-03T00:17:44.816Z,1007.04
2022-12-03T00:17:54.820Z,1007.02
2022-12-03T00:18:05.743Z,1007.03
2022-12-03T00:18:14.892Z,1007.05
2022-12-03T00:18:24.826Z,1007.09
2022-12-03T00:18:34.871Z,1007.06
2022-12-03T00:18:44.825Z,1007.04
2022-12-03T00:18:54.857Z,1007.01
2022-12-03T00:19:04.875Z,1007.02
2022-12-03T00:19:14.818Z,1007.01
2022-12-03T00:19:24.887Z,1007.01
2022-12-03T00:19:34.813Z,1007.03
2022-12-03T00:19:44.812Z,1007.04
2022-12-03T00:19:54.831Z,1007.01
2022-12-03T00:20:04.817Z,1007.02
2022-12-03T00:20:14.821Z,1007.00
2022-12-03T00:20:24.838Z,1007.03
2022-12-03T00:20:34.923Z,1007.04
2022-12-03T00:20:44.810Z,1007.03
2022-12-03T00:20:54.825Z,1007.02
2022-12-03T00:21:04.808Z,1006.98
2022-12-03T00:21:14.815Z,1007.01
2022-12-03T00:21:25.094Z,1007.00
2022-12-03T00:21:34.810Z,1007.03
2022-12-03T00:21:44.809Z,1007.03
2022-12-03T00:21:54.916Z,1007.01
2022-12-03T00:22:05.211Z,1007.01
2022-12-03T00:22:14.812Z,1007.02
2022-12-03T00:22:24.804Z,1006.96
2022-12-03T00:22:34.807Z,1007.01
2022-12-03T00:22:44.828Z,1007.00
2022-12-03T00:22:54.809Z,1006.92
2022-12-03T00:23:04.802Z,1006.95
2022-12-03T00:23:14.840Z,1006.94
2022-12-03T00:23:24.964Z,1006.97
2022-12-03T00:23:40.168Z,1006.98
2022-12-03T00:23:44.827Z,1006.97
2022-12-03T00:23:54.822Z,1006.96
2022-12-03T00:24:04.804Z,1006.95
2022-12-03T00:24:14.866Z,1006.93
2022-12-03T00:24:25.735Z,1006.98
2022-12-03T00:24:34.799Z,1006.95
2022-12-03T00:24:44.791Z,1006.92
2022-12-03T00:24:55.067Z,1006.97
2022-12-03T00:25:04.837Z,1006.94
2022-12-03T00:25:14.807Z,1006.96
2022-12-03T00:25:24.809Z,1006.95
2022-12-03T00:25:34.803Z,1006.97
2022-12-03T00:25:44.892Z,1006.98
2022-12-03T00:25:54.789Z,1006.94
2022-12-03T00:26:04.861Z,1006.94
2022-12-03T00:26:14.796Z,1006.94
2022-12-03T00:26:24.787Z,1006.99
2022-12-03T00:26:34.848Z,1006.95
2022-12-03T00:26:44.791Z,1006.91
2022-12-03T00:26:54.808Z,1006.95
2022-12-03T00:27:04.820Z,1006.96
2022-12-03T00:27:14.795Z,1006.92
2022-12-03T00:27:25.713Z,1006.93
2022-12-03T00:27:34.787Z,1006.96
2022-12-03T00:27:44.785Z,1006.96
2022-12-03T00:27:54.784Z,1006.94
2022-12-03T00:28:04.776Z,1006.96
2022-12-03T00:28:14.789Z,1006.96
2022-12-03T00:28:24.794Z,1006.98
2022-12-03T00:28:34.821Z,1006.95
2022-12-03T00:28:44.782Z,1006.92
2022-12-03T00:28:55.016Z,1006.95
2022-12-03T00:29:05.760Z,1006.94
2022-12-03T00:29:14.771Z,1006.99
2022-12-03T00:29:24.791Z,1006.98
2022-12-03T00:29:34.795Z,1006.96
2022-12-03T00:29:44.776Z,1006.96
2022-12-03T00:29:54.801Z,1006.94
2022-12-03T00:30:04.778Z,1006.96
2022-12-03T00:30:15.744Z,1006.91
2022-12-03T00:30:24.784Z,1006.98
2022-12-03T00:30:34.771Z,1006.97
2022-12-03T00:30:44.876Z,1006.97
2022-12-03T00:30:54.848Z,1006.95
2022-12-03T00:31:04.953Z,1006.96
2022-12-03T00:31:14.830Z,1006.93
2022-12-03T00:31:24.840Z,1006.93
2022-12-03T00:31:34.882Z,1006.94
2022-12-03T00:31:44.844Z,1006.94
2022-12-03T00:31:54.783Z,1006.99
2022-12-03T00:32:04.789Z,1006.91
2022-12-03T00:32:14.788Z,1006.97
2022-12-03T00:32:24.765Z,1006.93
2022-12-03T00:32:34.762Z,1006.92
2022-12-03T00:32:44.765Z,1006.94
2022-12-03T00:32:57.801Z,1006.97
2022-12-03T00:33:04.839Z,1006.99
2022-12-03T00:33:14.783Z,1006.97
2022-12-03T00:33:24.769Z,1006.96
2022-12-03T00:33:34.785Z,1006.94
2022-12-03T00:33:45.340Z,1006.94
2022-12-03T00:33:54.768Z,1006.90
2022-12-03T00:34:04.782Z,1006.98
2022-12-03T00:34:14.765Z,1006.94
2022-12-03T00:34:24.797Z,1006.96
2022-12-03T00:34:34.773Z,1006.92
2022-12-03T00:34:44.786Z,1006.92
2022-12-03T00:34:54.940Z,1006.98
2022-12-03T00:35:04.775Z,1006.93
2022-12-03T00:35:14.754Z,1006.95
2022-12-03T00:35:25.725Z,1006.98
2022-12-03T00:35:34.773Z,1006.94
2022-12-03T00:35:45.752Z,1006.94
2022-12-03T00:35:55.719Z,1006.93
2022-12-03T00:36:04.781Z,1006.97
2022-12-03T00:36:14.856Z,1006.97
2022-12-03T00:36:24.769Z,1006.91
2022-12-03T00:36:34.792Z,1006.95
2022-12-03T00:36:44.756Z,1006.93
2022-12-03T00:36:54.766Z,1006.97
2022-12-03T00:37:04.740Z,1006.92
2022-12-03T00:37:14.776Z,1006.94
2022-12-03T00:37:24.810Z,1006.94
2022-12-03T00:37:34.745Z,1006.93
2022-12-03T00:37:44.748Z,1006.93
2022-12-03T00:37:54.877Z,1006.92
2022-12-03T00:38:04.739Z,1006.94
2022-12-03T00:38:14.748Z,1006.93
2022-12-03T00:38:24.765Z,1006.91
2022-12-03T00:38:34.735Z,1006.94
2022-12-03T00:38:44.738Z,1006.95
2022-12-03T00:38:54.867Z,1006.97
2022-12-03T00:39:04.732Z,1006.97
2022-12-03T00:39:14.757Z,1006.97
2022-12-03T00:39:24.812Z,1006.99
2022-12-03T00:39:34.749Z,1006.98
2022-12-03T00:39:45.717Z,1006.97
2022-12-03T00:39:54.771Z,1006.99
2022-12-03T00:40:04.936Z,1006.98
2022-12-03T00:40:15.735Z,1006.96
2022-12-03T00:40:24.730Z,1006.93
2022-12-03T00:40:34.736Z,1006.96
2022-12-03T00:40:44.741Z,1006.97
2022-12-03T00:40:54.726Z,1006.94
2022-12-03T00:41:04.761Z,1006.95
2022-12-03T00:41:14.757Z,1006.98
2022-12-03T00:41:27.846Z,1006.98
2022-12-03T00:41:34.768Z,1006.98
2022-12-03T00:41:44.760Z,1006.96
2022-12-03T00:41:54.738Z,1006.96
2022-12-03T00:42:04.733Z,1006.99
2022-12-03T00:42:14.766Z,1006.97
2022-12-03T00:42:25.812Z,1007.00
2022-12-03T00:42:34.733Z,1006.98
2022-12-03T00:42:44.868Z,1006.95
2022-12-03T00:42:54.724Z,1006.94
2022-12-03T00:43:04.738Z,1007.00
2022-12-03T00:43:14.758Z,1006.95
2022-12-03T00:43:24.740Z,1006.95
2022-12-03T00:43:34.747Z,1006.95
2022-12-03T00:43:44.739Z,1006.94
2022-12-03T00:43:54.722Z,1007.00
2022-12-03T00:44:04.767Z,1007.04
2022-12-03T00:44:14.784Z,1006.96
2022-12-03T00:44:24.916Z,1006.99
2022-12-03T00:44:34.912Z,1006.99
2022-12-03T00:44:44.741Z,1006.94
2022-12-03T00:44:55.195Z,1006.96
2022-12-03T00:45:04.750Z,1006.96
2022-12-03T00:45:14.813Z,1007.00
2022-12-03T00:45:24.724Z,1006.99
2022-12-03T00:45:34.793Z,1006.97
2022-12-03T00:45:44.710Z,1006.96
2022-12-03T00:45:54.719Z,1006.93
2022-12-03T00:46:04.829Z,1006.96
2022-12-03T00:46:19.713Z,1006.97
2022-12-03T00:46:24.824Z,1006.94
2022-12-03T00:46:34.759Z,1006.98
2022-12-03T00:46:44.931Z,1006.99
2022-12-03T00:46:54.799Z,1006.98
2022-12-03T00:47:04.787Z,1007.01
2022-12-03T00:47:14.782Z,1006.97
2022-12-03T00:47:24.733Z,1006.99
2022-12-03T00:47:34.705Z,1006.95
2022-12-03T00:47:44.708Z,1006.99
2022-12-03T00:47:54.730Z,1007.02
2022-12-03T00:48:04.704Z,1006.99
2022-12-03T00:48:14.722Z,1006.95
2022-12-03T00:48:24.741Z,1006.97
2022-12-03T00:48:34.707Z,1007.00
2022-12-03T00:48:44.702Z,1007.02
2022-12-03T00:48:54.741Z,1007.01
2022-12-03T00:49:04.714Z,1006.99
2022-12-03T00:49:14.799Z,1006.97
2022-12-03T00:49:24.733Z,1006.95
2022-12-03T00:49:34.701Z,1006.97
2022-12-03T00:49:44.702Z,1006.95
2022-12-03T00:49:54.840Z,1007.01
2022-12-03T00:50:04.702Z,1007.00
2022-12-03T00:50:14.711Z,1006.94
2022-12-03T00:50:24.716Z,1006.98
2022-12-03T00:50:34.697Z,1006.99
2022-12-03T00:50:44.714Z,1006.95
2022-12-03T00:50:54.688Z,1006.97
2022-12-03T00:51:04.702Z,1006.96
2022-12-03T00:51:14.862Z,1006.96
2022-12-03T00:51:24.690Z,1006.98
2022-12-03T00:51:34.715Z,1006.99
2022-12-03T00:51:44.716Z,1006.99
2022-12-03T00:51:54.685Z,1006.97
2022-12-03T00:52:04.690Z,1006.99
2022-12-03T00:52:14.742Z,1006.99
2022-12-03T00:52:24.720Z,1007.00
2022-12-03T00:52:34.691Z,1007.00
2022-12-03T00:52:44.733Z,1007.01
2022-12-03T00:52:54.686Z,1007.00
2022-12-03T00:53:05.234Z,1006.99
2022-12-03T00:53:14.686Z,1006.95
2022-12-03T00:53:24.703Z,1007.00
2022-12-03T00:53:34.740Z,1006.97
2022-12-03T00:53:44.682Z,1007.02
2022-12-03T00:53:54.694Z,1006.98
2022-12-03T00:54:04.748Z,1006.98
2022-12-03T00:54:14.692Z,1006.97
2022-12-03T00:54:30.215Z,1006.95
2022-12-03T00:54:34.709Z,1006.94
2022-12-03T00:54:44.688Z,1006.95
2022-12-03T00:54:54.972Z,1006.99
2022-12-03T00:55:04.706Z,1006.94
2022-12-03T00:55:14.775Z,1006.97
2022-12-03T00:55:25.249Z,1007.04
2022-12-03T00:55:34.712Z,1007.01
2022-12-03T00:55:44.675Z,1007.00
2022-12-03T00:55:54.683Z,1006.96
2022-12-03T00:56:04.672Z,1006.99
2022-12-03T00:56:14.699Z,1006.96
2022-12-03T00:56:24.700Z,1007.00
2022-12-03T00:56:34.670Z,1006.98
2022-12-03T00:56:44.778Z,1006.95
2022-12-03T00:56:54.888Z,1006.94
2022-12-03T00:57:04.668Z,1006.93
2022-12-03T00:57:14.798Z,1006.97
2022-12-03T00:57:24.688Z,1006.95
2022-12-03T00:57:34.797Z,1006.96
2022-12-03T00:57:44.675Z,1006.96
2022-12-03T00:57:54.698Z,1007.01
2022-12-03T00:58:05.250Z,1006.97
2022-12-03T00:58:14.769Z,1006.96
2022-12-03T00:58:24.698Z,1006.98
2022-12-03T00:58:34.662Z,1006.97
2022-12-03T00:58:44.691Z,1006.98
2022-12-03T00:58:54.656Z,1006.95
2022-12-03T00:59:04.670Z,1006.97
2022-12-03T00:59:14.703Z,1006.95
2022-12-03T00:59:24.677Z,1006.93
2022-12-03T00:59:34.789Z,1006.94
2022-12-03T00:59:44.674Z,1006.98
2022-12-03T00:59:54.678Z,1006.96
2022-12-03T01:00:04.667Z,1007.00
2022-12-03T01:00:14.879Z,1006.97
2022-12-03T01:00:25.318Z,1006.92
2022-12-03T01:00:34.669Z,1006.96
2022-12-03T01:00:44.686Z,1006.91
2022-12-03T01:00:54.662Z,1006.93
2022-12-03T01:01:04.667Z,1006.96
2022-12-03T01:01:14.738Z,1006.93
2022-12-03T01:01:24.762Z,1006.97
2022-12-03T01:01:34.747Z,1006.94
2022-12-03T01:01:44.729Z,1006.95
2022-12-03T01:01:54.701Z,1006.95
2022-12-03T01:02:04.748Z,1006.98
2022-12-03T01:02:14.750Z,1006.93
2022-12-03T01:02:24.721Z,1006.95
2022-12-03T01:02:34.730Z,1006.93
2022-12-03T01:02:44.645Z,1006.96
2022-12-03T01:02:54.643Z,1006.94
2022-12-03T01:03:04.716Z,1006.91
2022-12-03T01:03:14.641Z,1006.97
2022-12-03T01:03:25.238Z,1006.96
2022-12-03T01:03:34.667Z,1006.93
2022-12-03T01:03:44.693Z,1006.95
2022-12-03T01:03:54.635Z,1006.94
2022-12-03T01:04:04.671Z,1006.96
2022-12-03T01:04:14.664Z,1006.94
2022-12-03T01:04:24.711Z,1006.97
2022-12-03T01:04:34.738Z,1006.95
2022-12-03T01:04:44.748Z,1006.97
2022-12-03T01:04:54.892Z,1007.00
2022-12-03T01:05:04.708Z,1006.93
2022-12-03T01:05:14.786Z,1006.95
2022-12-03T01:05:24.661Z,1006.96
2022-12-03T01:05:34.647Z,1006.98
2022-12-03T01:05:44.641Z,1006.99
2022-12-03T01:05:54.657Z,1006.98
2022-12-03T01:06:04.635Z,1006.94
2022-12-03T01:06:14.638Z,1007.00
2022-12-03T01:06:24.661Z,1006.94
2022-12-03T01:06:35.221Z,1006.97
2022-12-03T01:06:45.304Z,1007.01
2022-12-03T01:06:54.651Z,1006.99
2022-12-03T01:07:04.640Z,1006.99
2022-12-03T01:07:14.634Z,1006.99
2022-12-03T01:07:24.740Z,1006.98
2022-12-03T01:07:34.748Z,1006.97
2022-12-03T01:07:44.730Z,1006.97
2022-12-03T01:07:54.757Z,1007.00
2022-12-03T01:08:05.395Z,1006.96
2022-12-03T01:08:14.814Z,1006.95
2022-12-03T01:08:24.650Z,1006.93
2022-12-03T01:08:34.694Z,1006.97
2022-12-03T01:08:44.649Z,1006.93
2022-12-03T01:08:54.618Z,1006.93
2022-12-03T01:09:04.637Z,1007.00
2022-12-03T01:09:15.246Z,1006.94
2022-12-03T01:09:24.692Z,1006.91
2022-12-03T01:09:34.636Z,1006.90
2022-12-03T01:09:44.655Z,1006.91
2022-12-03T01:09:54.699Z,1006.93
2022-12-03T01:10:04.636Z,1006.93
2022-12-03T01:10:14.635Z,1006.96
2022-12-03T01:10:24.614Z,1006.91
2022-12-03T01:10:34.635Z,1006.91
2022-12-03T01:10:44.655Z,1006.94
2022-12-03T01:10:54.614Z,1006.94
2022-12-03T01:11:05.226Z,1006.93
2022-12-03T01:11:14.694Z,1006.96
2022-12-03T01:11:24.709Z,1006.95
2022-12-03T01:11:34.653Z,1006.97
2022-12-03T01:11:44.639Z,1006.92
2022-12-03T01:11:54.609Z,1006.87
2022-12-03T01:12:04.619Z,1006.88
2022-12-03T01:12:14.710Z,1006.92
2022-12-03T01:12:24.605Z,1006.92
2022-12-03T01:12:34.630Z,1006.93
2022-12-03T01:12:44.666Z,1006.93
2022-12-03T01:12:54.617Z,1006.94
2022-12-03T01:13:04.623Z,1006.89
2022-12-03T01:13:14.609Z,1006.90
2022-12-03T01:13:24.719Z,1006.89
2022-12-03T01:13:34.639Z,1006.87
2022-12-03T01:13:44.599Z,1006.91
2022-12-03T01:13:54.626Z,1006.92
2022-12-03T01:14:04.638Z,1006.93
2022-12-03T01:14:14.603Z,1006.90
2022-12-03T01:14:24.616Z,1006.88
2022-12-03T01:14:34.707Z,1006.87
2022-12-03T01:14:44.599Z,1006.93
2022-12-03T01:14:54.949Z,1006.94
2022-12-03T01:15:04.806Z,1006.87
2022-12-03T01:15:14.593Z,1006.85
2022-12-03T01:15:24.609Z,1006.89
2022-12-03T01:15:34.668Z,1006.86
2022-12-03T01:15:44.653Z,1006.85
2022-12-03T01:15:54.669Z,1006.89
2022-12-03T01:16:04.668Z,1006.89
2022-12-03T01:16:14.637Z,1006.90
2022-12-03T01:16:24.769Z,1006.86
2022-12-03T01:16:34.717Z,1006.92
2022-12-03T01:16:44.642Z,1006.91
2022-12-03T01:16:54.621Z,1006.89
2022-12-03T01:17:04.596Z,1006.84
2022-12-03T01:17:14.595Z,1006.89
2022-12-03T01:17:24.627Z,1006.88
2022-12-03T01:17:34.628Z,1006.88
2022-12-03T01:17:44.618Z,1006.88
2022-12-03T01:17:55.237Z,1006.91
2022-12-03T01:18:04.588Z,1006.93
2022-12-03T01:18:14.596Z,1006.88
2022-12-03T01:18:25.292Z,1006.89
2022-12-03T01:18:34.585Z,1006.88
2022-12-03T01:18:44.598Z,1006.91
2022-12-03T01:18:54.586Z,1006.86
2022-12-03T01:19:04.584Z,1006.90
2022-12-03T01:19:15.235Z,1006.89
2022-12-03T01:19:24.582Z,1006.90
2022-12-03T01:19:34.590Z,1006.88
2022-12-03T01:19:48.199Z,1006.89
2022-12-03T01:19:54.652Z,1006.87
2022-12-03T01:20:04.583Z,1006.90
2022-12-03T01:20:14.640Z,1006.89
2022-12-03T01:20:25.259Z,1006.91
2022-12-03T01:20:34.600Z,1006.86
2022-12-03T01:20:44.583Z,1006.86
2022-12-03T01:20:54.578Z,1006.89
2022-12-03T01:21:04.589Z,1006.85
2022-12-03T01:21:14.619Z,1006.87
2022-12-03T01:21:24.578Z,1006.85
2022-12-03T01:21:34.577Z,1006.86
2022-12-03T01:21:44.582Z,1006.89
2022-12-03T01:21:54.590Z,1006.89
2022-12-03T01:22:04.593Z,1006.90
2022-12-03T01:22:14.627Z,1006.87
2022-12-03T01:22:24.569Z,1006.92
2022-12-03T01:22:34.580Z,1006.89
2022-12-03T01:22:44.566Z,1006.88
2022-12-03T01:22:54.574Z,1006.86
2022-12-03T01:23:04.611Z,1006.87
2022-12-03T01:23:14.559Z,1006.92
2022-12-03T01:23:24.619Z,1006.87
2022-12-03T01:23:34.602Z,1006.89
2022-12-03T01:23:44.571Z,1006.87
2022-12-03T01:23:54.581Z,1006.84
2022-12-03T01:24:04.589Z,1006.89
2022-12-03T01:24:14.567Z,1006.86
2022-12-03T01:24:24.568Z,1006.88
2022-12-03T01:24:34.573Z,1006.89
2022-12-03T01:24:44.583Z,1006.89
2022-12-03T01:24:54.859Z,1006.87
2022-12-03T01:25:04.722Z,1006.85
2022-12-03T01:25:14.563Z,1006.87
2022-12-03T01:25:24.728Z,1006.87
2022-12-03T01:25:34.614Z,1006.89
2022-12-03T01:25:45.396Z,1006.85
2022-12-03T01:25:54.579Z,1006.87
2022-12-03T01:26:04.609Z,1006.90
2022-12-03T01:26:14.639Z,1006.89
2022-12-03T01:26:24.621Z,1006.91
2022-12-03T01:26:34.552Z,1006.87
2022-12-03T01:26:44.548Z,1006.91
2022-12-03T01:26:54.571Z,1006.85
2022-12-03T01:27:04.545Z,1006.86
2022-12-03T01:27:14.658Z,1006.91
2022-12-03T01:27:25.239Z,1006.83
2022-12-03T01:27:34.627Z,1006.86
2022-12-03T01:27:44.554Z,1006.84
2022-12-03T01:27:54.592Z,1006.89
2022-12-03T01:28:04.546Z,1006.86
2022-12-03T01:28:14.559Z,1006.86
2022-12-03T01:28:24.537Z,1006.84
2022-12-03T01:28:34.560Z,1006.89
2022-12-03T01:28:44.566Z,1006.90
2022-12-03T01:28:54.596Z,1006.91
2022-12-03T01:29:04.565Z,1006.86
2022-12-03T01:29:14.574Z,1006.90
2022-12-03T01:29:24.638Z,1006.89
2022-12-03T01:29:34.636Z,1006.87
2022-12-03T01:29:44.556Z,1006.85
2022-12-03T01:29:54.536Z,1006.83
2022-12-03T01:30:04.547Z,1006.83
2022-12-03T01:30:14.602Z,1006.86
2022-12-03T01:30:27.302Z,1006.84
2022-12-03T01:30:34.644Z,1006.87
2022-12-03T01:30:44.676Z,1006.87
2022-12-03T01:30:54.622Z,1006.89
2022-12-03T01:31:04.594Z,1006.86
2022-12-03T01:31:14.596Z,1006.86
2022-12-03T01:31:24.871Z,1006.85
2022-12-03T01:31:34.777Z,1006.84
2022-12-03T01:31:47.322Z,1006.84
2022-12-03T01:31:54.527Z,1006.82
2022-12-03T01:32:04.559Z,1006.85
2022-12-03T01:32:14.537Z,1006.86
2022-12-03T01:32:24.562Z,1006.82
2022-12-03T01:32:35.241Z,1006.88
2022-12-03T01:32:44.529Z,1006.84
2022-12-03T01:32:54.611Z,1006.82
2022-12-03T01:33:04.545Z,1006.85
2022-12-03T01:33:14.527Z,1006.81
2022-12-03T01:33:24.578Z,1006.83
2022-12-03T01:33:34.558Z,1006.83
2022-12-03T01:33:44.524Z,1006.83
2022-12-03T01:33:54.535Z,1006.81
2022-12-03T01:34:04.610Z,1006.84
2022-12-03T01:34:14.615Z,1006.84
2022-12-03T01:34:24.539Z,1006.86
2022-12-03T01:34:34.579Z,1006.85
2022-12-03T01:34:44.529Z,1006.82
2022-12-03T01:34:54.974Z,1006.82
2022-12-03T01:35:05.233Z,1006.82
2022-12-03T01:35:14.525Z,1006.84
2022-12-03T01:35:24.545Z,1006.83
2022-12-03T01:35:34.513Z,1006.84
2022-12-03T01:35:44.562Z,1006.81
2022-12-03T01:35:54.547Z,1006.84
2022-12-03T01:36:04.520Z,1006.83
2022-12-03T01:36:14.555Z,1006.88
2022-12-03T01:36:24.550Z,1006.84
2022-12-03T01:36:34.510Z,1006.84
2022-12-03T01:36:44.520Z,1006.84
2022-12-03T01:36:54.558Z,1006.85
2022-12-03T01:37:04.515Z,1006.87
2022-12-03T01:37:14.527Z,1006.86
2022-12-03T01:37:25.279Z,1006.88
2022-12-03T01:37:34.534Z,1006.88
2022-12-03T01:37:44.517Z,1006.88
2022-12-03T01:37:54.541Z,1006.85
2022-12-03T01:38:04.519Z,1006.84
2022-12-03T01:38:14.583Z,1006.87
2022-12-03T01:38:24.506Z,1006.85
2022-12-03T01:38:34.510Z,1006.87
2022-12-03T01:38:45.246Z,1006.85
2022-12-03T01:38:54.502Z,1006.86
2022-12-03T01:39:04.522Z,1006.87
2022-12-03T01:39:14.531Z,1006.85
2022-12-03T01:39:24.508Z,1006.84
2022-12-03T01:39:34.524Z,1006.84
2022-12-03T01:39:44.524Z,1006.83
2022-12-03T01:39:54.503Z,1006.86
2022-12-03T01:40:04.509Z,1006.78
2022-12-03T01:40:14.521Z,1006.83
2022-12-03T01:40:24.496Z,1006.83
2022-12-03T01:40:34.511Z,1006.84
2022-12-03T01:40:44.544Z,1006.84
2022-12-03T01:40:54.579Z,1006.83
2022-12-03T01:41:08.638Z,1006.90
2022-12-03T01:41:14.497Z,1006.83
2022-12-03T01:41:24.511Z,1006.84
2022-12-03T01:41:34.563Z,1006.85
2022-12-03T01:41:44.497Z,1006.84
2022-12-03T01:41:54.504Z,1006.91
2022-12-03T01:42:04.517Z,1006.84
2022-12-03T01:42:14.499Z,1006.85
2022-12-03T01:42:24.542Z,1006.85
2022-12-03T01:42:34.538Z,1006.87
2022-12-03T01:42:44.521Z,1006.86
2022-12-03T01:42:54.503Z,1006.84
2022-12-03T01:43:04.658Z,1006.86
2022-12-03T01:43:14.594Z,1006.87
2022-12-03T01:43:24.508Z,1006.88
2022-12-03T01:43:34.481Z,1006.89
2022-12-03T01:43:44.485Z,1006.88
2022-12-03T01:43:54.500Z,1006.88
2022-12-03T01:44:04.536Z,1006.87
2022-12-03T01:44:14.495Z,1006.86
2022-12-03T01:44:24.551Z,1006.85
2022-12-03T01:44:34.488Z,1006.88
2022-12-03T01:44:44.504Z,1006.86
2022-12-03T01:44:54.905Z,1006.89
2022-12-03T01:45:04.553Z,1006.90
2022-12-03T01:45:14.502Z,1006.91
2022-12-03T01:45:24.523Z,1006.89
2022-12-03T01:45:34.476Z,1006.95
2022-12-03T01:45:45.230Z,1006.88
2022-12-03T01:45:54.514Z,1006.90
2022-12-03T01:46:04.595Z,1006.91
2022-12-03T01:46:14.570Z,1006.92
2022-12-03T01:46:24.624Z,1006.89
2022-12-03T01:46:34.537Z,1006.90
2022-12-03T01:46:44.549Z,1006.87
2022-12-03T01:46:57.493Z,1006.90
2022-12-03T01:47:04.556Z,1006.91
2022-12-03T01:47:14.593Z,1006.95
2022-12-03T01:47:24.475Z,1006.92
2022-12-03T01:47:34.478Z,1006.89
2022-12-03T01:47:44.484Z,1006.90
2022-12-03T01:47:54.472Z,1006.89
2022-12-03T01:48:04.478Z,1006.91
2022-12-03T01:48:14.484Z,1006.88
2022-12-03T01:48:24.476Z,1006.90
2022-12-03T01:48:34.683Z,1006.88
2022-12-03T01:48:44.495Z,1006.84
2022-12-03T01:48:54.485Z,1006.88
2022-12-03T01:49:04.461Z,1006.83
2022-12-03T01:49:14.490Z,1006.87
2022-12-03T01:49:24.470Z,1006.90
2022-12-03T01:49:34.512Z,1006.88
2022-12-03T01:49:44.454Z,1006.85
2022-12-03T01:49:55.336Z,1006.87
2022-12-03T01:50:04.470Z,1006.87
2022-12-03T01:50:15.238Z,1006.91
2022-12-03T01:50:24.460Z,1006.88
2022-12-03T01:50:34.471Z,1006.86
2022-12-03T01:50:44.557Z,1006.89
2022-12-03T01:50:54.463Z,1006.88
2022-12-03T01:51:05.231Z,1006.87
2022-12-03T01:51:14.551Z,1006.88
2022-12-03T01:51:24.450Z,1006.88
2022-12-03T01:51:34.468Z,1006.86
2022-12-03T01:51:44.459Z,1006.86
2022-12-03T01:51:54.659Z,1006.87
2022-12-03T01:52:04.471Z,1006.86
2022-12-03T01:52:14.461Z,1006.85
2022-12-03T01:52:24.464Z,1006.88
2022-12-03T01:52:34.506Z,1006.83
2022-12-03T01:52:44.518Z,1006.85
2022-12-03T01:52:54.457Z,1006.83
2022-12-03T01:53:04.443Z,1006.85
2022-12-03T01:53:14.444Z,1006.83
2022-12-03T01:53:24.486Z,1006.82
2022-12-03T01:53:34.462Z,1006.84
2022-12-03T01:53:44.447Z,1006.85
2022-12-03T01:53:54.461Z,1006.83
2022-12-03T01:54:05.251Z,1006.83
2022-12-03T01:54:14.450Z,1006.82
2022-12-03T01:54:24.461Z,1006.79
2022-12-03T01:54:34.468Z,1006.77
2022-12-03T01:54:44.472Z,1006.78
2022-12-03T01:54:54.795Z,1006.79
2022-12-03T01:55:04.439Z,1006.78
2022-12-03T01:55:14.451Z,1006.82
2022-12-03T01:55:24.472Z,1006.79
2022-12-03T01:55:34.550Z,1006.81
2022-12-03T01:55:48.467Z,1006.79
2022-12-03T01:55:54.459Z,1006.78
2022-12-03T01:56:04.449Z,1006.77
2022-12-03T01:56:14.445Z,1006.81
2022-12-03T01:56:24.566Z,1006.78
2022-12-03T01:56:34.449Z,1006.83
2022-12-03T01:56:44.445Z,1006.84
2022-12-03T01:56:55.270Z,1006.81
2022-12-03T01:57:04.434Z,1006.78
2022-12-03T01:57:15.273Z,1006.78
2022-12-03T01:57:24.430Z,1006.75
2022-12-03T01:57:34.437Z,1006.74
2022-12-03T01:57:44.442Z,1006.77
2022-12-03T01:57:54.434Z,1006.75
2022-12-03T01:58:04.433Z,1006.77
2022-12-03T01:58:14.448Z,1006.78
2022-12-03T01:58:24.427Z,1006.79
2022-12-03T01:58:34.512Z,1006.79
2022-12-03T01:58:44.444Z,1006.76
2022-12-03T01:58:54.431Z,1006.73
2022-12-03T01:59:04.445Z,1006.80
2022-12-03T01:59:14.448Z,1006.78
2022-12-03T01:59:24.435Z,1006.76
2022-12-03T01:59:34.447Z,1006.77
2022-12-03T01:59:44.490Z,1006.76
2022-12-03T01:59:54.416Z,1006.74
2022-12-03T02:00:04.429Z,1006.76
2022-12-03T02:00:14.419Z,1006.79
2022-12-03T02:00:24.425Z,1006.77
2022-12-03T02:00:34.456Z,1006.78
2022-12-03T02:00:44.497Z,1006.78
2022-12-03T02:00:54.422Z,1006.77